WetterOnline ( https://www.wetteronline.de )

Wetter aktuell Dinkelsbühl

Aktuelles Wetter: Feuchtwangen-Heilbronn (475m)

6-stündlich | Neueste Meldungen
Ortszeit Temperatur Wetter
Mo, 27.01. 13:00 7.2° C bewölkt
Mo, 27.01. 7:00 1.0° C bedeckt
Mo, 27.01. 1:00 -1.3° C Nebel
So, 26.01. 19:00 1.2° C fast wolkenlos
So, 26.01. 13:00 4.9° C bedeckt
So, 26.01. 7:00 -1.0° C wolkig
So, 26.01. 1:00 -1.0° C bewölkt
Sa, 25.01. 19:00 1.7° C bedeckt
Ortszeit Temperatur Wetter
Mo, 27.01. 13:00 7.2° C bewölkt
Mo, 27.01. 12:50 7.2° C bewölkt
Mo, 27.01. 12:40 6.8° C bewölkt
Mo, 27.01. 12:30 6.4° C wolkig
Mo, 27.01. 12:20 6.4° C wolkig
Mo, 27.01. 12:10 6.1° C bewölkt
Mo, 27.01. 12:00 5.9° C leicht bewölkt
Mo, 27.01. 11:30 5.1° C wolkig
Mo, 27.01. 11:00 4.5° C wolkig
Mo, 27.01. 10:30 3.4° C leicht bewölkt
Mo, 27.01. 10:00 2.8° C wolkig
Ortszeit Relative Feuchte Sichtweite
Mo, 27.01. 13:00 72% 35 km
Mo, 27.01. 7:00 99% 8 km
Mo, 27.01. 1:00 100% 100 m
So, 26.01. 19:00 96% 6 km
So, 26.01. 13:00 84% 13 km
So, 26.01. 7:00 100% 3.3 km
So, 26.01. 1:00 100% 2.4 km
Sa, 25.01. 19:00 96% 5.0 km
Ortszeit Relative Feuchte Sichtweite
Mo, 27.01. 13:00 72% 35 km
Mo, 27.01. 12:50 72% -
Mo, 27.01. 12:40 75% -
Mo, 27.01. 12:30 76% 30 km
Mo, 27.01. 12:20 76% -
Mo, 27.01. 12:10 76% -
Mo, 27.01. 12:00 78% 29 km
Mo, 27.01. 11:30 81% 26 km
Mo, 27.01. 11:00 84% 22 km
Mo, 27.01. 10:30 89% 14 km
Mo, 27.01. 10:00 91% 11 km
Ortszeit Niederschlagsmenge Niederschlagsart
Mo, 27.01. 13:00 0.1 l/m2 in 6 Std. Regen
Mo, 27.01. 7:00 0.1 l/m2 in 12 Std. Sprühregen
Mo, 27.01. 1:00 0.0 l/m2 in 6 Std. -
So, 26.01. 19:00 0.0 l/m2 in 12 Std. -
So, 26.01. 13:00 0.0 l/m2 in 6 Std. -
So, 26.01. 7:00 0.0 l/m2 in 12 Std. -
So, 26.01. 1:00 0.0 l/m2 in 6 Std. -
Sa, 25.01. 19:00 0.0 l/m2 in 12 Std. -
Ortszeit Niederschlagsmenge Niederschlagsart
Mo, 27.01. 13:00 0.0 l/m2 in 1 Std. Regen
Mo, 27.01. 12:50 keine Meldung -
Mo, 27.01. 12:40 keine Meldung -
Mo, 27.01. 12:30 0.0 l/m2 in 1 Std. -
Mo, 27.01. 12:20 keine Meldung -
Mo, 27.01. 12:10 keine Meldung -
Mo, 27.01. 12:00 0.0 l/m2 in 1 Std. -
Mo, 27.01. 11:30 0.0 l/m2 in 1 Std. -
Mo, 27.01. 11:00 0.0 l/m2 in 1 Std. -
Mo, 27.01. 10:30 0.0 l/m2 in 1 Std. -
Mo, 27.01. 10:00 0.0 l/m2 in 1 Std. Regen
Ortszeit Stärke Spitze Richtung
km/h Bft. km/h Grad Sektor
Mo, 27.01. 13:00 15 3 22 200° S
Mo, 27.01. 7:00 7 2 11 180° S
Mo, 27.01. 1:00 0 0 7 - -
So, 26.01. 19:00 2 1 7 140° SO
So, 26.01. 13:00 6 1 9 190° S
So, 26.01. 7:00 0 0 7 - -
So, 26.01. 1:00 4 1 11 80° O
Sa, 25.01. 19:00 2 1 9 30° NO
Ortszeit Stärke Spitze Richtung
km/h Bft. km/h Grad Sektor
Mo, 27.01. 13:00 15 3 22 200° S
Mo, 27.01. 12:50 15 3 - 200° S
Mo, 27.01. 12:40 13 3 - 200° S
Mo, 27.01. 12:30 11 2 22 190° S
Mo, 27.01. 12:20 11 2 - 190° S
Mo, 27.01. 12:10 11 2 - 190° S
Mo, 27.01. 12:00 9 2 15 170° S
Mo, 27.01. 11:30 9 2 15 170° S
Mo, 27.01. 11:00 9 2 19 150° SO
Mo, 27.01. 10:30 11 2 18 170° S
Mo, 27.01. 10:00 11 2 14 180° S
Ortszeit Untergrenze Bedeckung Gattung
total tief tief mittel hoch
Mo, 27.01. 13:00 1800 m 7/8 7/8 - - -
Mo, 27.01. 7:00 1080 m 8/8 8/8 - - -
Mo, 27.01. 1:00 2100 m 0/8 0/8 - - -
So, 26.01. 19:00 7500 m 2/8 0/8 - - -
So, 26.01. 13:00 3000 m 8/8 8/8 - - -
So, 26.01. 7:00 2700 m 8/8 2/8 - - -
So, 26.01. 1:00 2700 m 8/8 7/8 - - -
Sa, 25.01. 19:00 2700 m 8/8 8/8 - - -
Ortszeit Bedeckungsgrad in Achtel und Wolkenuntergrenze
Mo, 27.01. 13:00 7(1800m) 7(7200m) 7(9000m)
Mo, 27.01. 12:50 7(1800m) 7(7200m) 7(9000m)
Mo, 27.01. 12:40 5(1800m) 7(2400m) 7(7200m)
Mo, 27.01. 12:30 5(2400m) 6(6900m) 7(9000m)
Mo, 27.01. 12:20 5(2400m) 6(6900m) 7(9000m)
Mo, 27.01. 12:10 4(2400m) 6(7200m) 8(9000m)
Mo, 27.01. 12:00 5(7200m) 7(9000m)
Mo, 27.01. 11:30 1(3000m) 7(8700m)
Mo, 27.01. 11:00 8(9000m)
Mo, 27.01. 10:30 1(1440m) 4(9000m)
Mo, 27.01. 10:00 3(1380m) 6(9000m)
Ortszeit Luftdruck NN (hPa) Tendenz (hPa in 3 Std.)
Mo, 27.01. 13:00 1014 - 2,2
Mo, 27.01. 7:00 1018 - 0,6
Mo, 27.01. 1:00 1020 - 0,5
So, 26.01. 19:00 1020 0,0
So, 26.01. 13:00 1020 - 0,7
So, 26.01. 7:00 1021 - 0,3
So, 26.01. 1:00 1023 - 0,5
Sa, 25.01. 19:00 1023 + 0,1
Ortszeit Luftdruck NN (hPa) Tendenz (hPa in 3 Std.)
Mo, 27.01. 13:00 1014 - 2,2
Mo, 27.01. 12:50 1014 keine Meldung
Mo, 27.01. 12:40 1014 keine Meldung
Mo, 27.01. 12:30 1015 - 1,9
Mo, 27.01. 12:20 1015 keine Meldung
Mo, 27.01. 12:10 1015 keine Meldung
Mo, 27.01. 12:00 1015 - 1,6
Mo, 27.01. 11:30 1016 - 1,1
Mo, 27.01. 11:00 1016 - 1,2
Mo, 27.01. 10:30 1017 - 1,1
Mo, 27.01. 10:00 1017 - 0,8
Ortszeit Schneehöhe (cm)
Mo, 27.01. 13:00 0
Mo, 27.01. 7:00 0
Mo, 27.01. 1:00 0
So, 26.01. 19:00 0
So, 26.01. 13:00 0
So, 26.01. 7:00 0
So, 26.01. 1:00 0
Sa, 25.01. 19:00 0
Ortszeit Schneehöhe (cm)
Mo, 27.01. 13:00 0
Mo, 27.01. 12:50 0
Mo, 27.01. 12:40 0
Mo, 27.01. 12:30 0
Mo, 27.01. 12:20 0
Mo, 27.01. 12:10 0
Mo, 27.01. 12:00 0
Mo, 27.01. 11:30 0
Mo, 27.01. 11:00 0
Mo, 27.01. 10:30 0
Mo, 27.01. 10:00 0
Link zu dieser Seite / Seite empfehlen

Das Wetter in ...